createdAt,value
2022-12-23T00:00:39.815Z,3.10
2022-12-23T00:03:07.050Z,3.17
2022-12-23T00:05:40.567Z,2.90
2022-12-23T00:08:08.677Z,3.10
2022-12-23T00:10:38.609Z,2.80
2022-12-23T00:13:24.560Z,3.07
2022-12-23T00:15:51.654Z,3.03
2022-12-23T00:18:18.749Z,2.93
2022-12-23T00:20:45.842Z,2.80
2022-12-23T00:23:12.941Z,2.67
2022-12-23T00:25:43.844Z,2.70
2022-12-23T00:28:11.794Z,2.90
2022-12-23T00:30:45.408Z,3.40
2022-12-23T00:33:12.499Z,3.00
2022-12-23T00:35:39.691Z,2.70
2022-12-23T00:38:06.839Z,3.20
2022-12-23T00:40:52.641Z,2.77
2022-12-23T00:43:19.781Z,2.70
2022-12-23T00:45:47.833Z,2.90
2022-12-23T00:48:33.689Z,3.10
2022-12-23T00:51:00.809Z,3.30
2022-12-23T00:53:27.932Z,3.53
2022-12-23T00:55:55.037Z,3.20
2022-12-23T00:58:22.474Z,3.30
2022-12-23T01:01:08.340Z,3.60
2022-12-23T01:03:54.447Z,3.23
2022-12-23T01:06:21.614Z,3.10
2022-12-23T01:08:48.757Z,3.27
2022-12-23T01:11:15.865Z,2.83
2022-12-23T01:13:43.015Z,2.80
2022-12-23T01:16:17.120Z,3.40
2022-12-23T01:18:44.615Z,2.60
2022-12-23T01:21:11.790Z,2.60
2022-12-23T01:23:38.947Z,3.30
2022-12-23T01:26:06.755Z,2.90
2022-12-23T01:28:34.527Z,2.90
2022-12-23T01:31:02.666Z,2.97
2022-12-23T01:33:29.973Z,2.97
2022-12-23T01:36:03.723Z,3.33
2022-12-23T01:38:31.013Z,5.47
2022-12-23T01:40:58.103Z,4.57
2022-12-23T01:43:44.438Z,4.13
2022-12-23T01:46:11.620Z,3.60
2022-12-23T01:48:39.443Z,4.13
2022-12-23T01:51:08.985Z,2.87
2022-12-23T01:53:37.911Z,3.30
2022-12-23T01:56:10.296Z,3.07
2022-12-23T01:58:38.592Z,4.53
2022-12-23T02:01:25.364Z,4.50
2022-12-23T02:03:54.445Z,4.10
2022-12-23T02:06:54.329Z,2.90
2022-12-23T02:09:23.750Z,3.50
2022-12-23T02:12:08.973Z,4.20
2022-12-23T02:15:12.890Z,4.00
2022-12-23T02:17:45.775Z,3.30
2022-12-23T02:20:31.637Z,3.70
2022-12-23T02:23:04.852Z,4.83
2022-12-23T02:25:37.739Z,5.00
2022-12-23T02:28:04.805Z,4.50
2022-12-23T02:30:38.096Z,4.57
2022-12-23T02:33:14.712Z,5.63
2022-12-23T02:35:45.698Z,5.70
2022-12-23T02:38:15.451Z,6.87
2022-12-23T02:41:05.983Z,6.80
2022-12-23T02:43:39.244Z,7.03
2022-12-23T02:46:13.137Z,7.33
2022-12-23T02:48:57.414Z,7.43
2022-12-23T02:51:27.728Z,8.03
2022-12-23T02:53:56.963Z,8.07
2022-12-23T02:56:25.905Z,8.10
2022-12-23T02:59:17.079Z,7.73
2022-12-23T03:01:45.686Z,7.23
2022-12-23T03:04:12.867Z,7.67
2022-12-23T03:06:44.049Z,6.63
2022-12-23T03:09:33.033Z,3.07
2022-12-23T03:12:12.820Z,2.73
2022-12-23T03:15:03.012Z,1.77
2022-12-23T03:17:56.377Z,1.70
2022-12-23T03:20:26.759Z,1.50
2022-12-23T03:23:02.336Z,1.50
2022-12-23T03:25:46.695Z,1.63
2022-12-23T03:28:32.136Z,1.53
2022-12-23T03:31:00.134Z,1.60
2022-12-23T03:33:37.878Z,1.60
2022-12-23T03:36:11.297Z,1.43
2022-12-23T03:38:40.115Z,1.67
2022-12-23T03:41:10.253Z,1.80
2022-12-23T03:43:43.502Z,1.63
2022-12-23T03:46:18.474Z,1.70
2022-12-23T03:48:49.544Z,1.87
2022-12-23T03:51:19.117Z,1.90
2022-12-23T03:53:48.769Z,1.63
2022-12-23T03:56:19.761Z,2.30
2022-12-23T03:58:54.523Z,2.43
2022-12-23T04:01:40.166Z,2.23
2022-12-23T04:04:07.532Z,2.47
2022-12-23T04:06:39.773Z,2.57
2022-12-23T04:09:08.028Z,2.50
2022-12-23T04:11:36.001Z,2.63
2022-12-23T04:14:03.296Z,2.27
2022-12-23T04:16:30.632Z,2.30
2022-12-23T04:18:57.817Z,2.50
2022-12-23T04:21:24.912Z,2.17
2022-12-23T04:23:52.041Z,2.63
2022-12-23T04:26:19.125Z,3.10
2022-12-23T04:28:46.237Z,2.90
2022-12-23T04:31:13.383Z,2.83
2022-12-23T04:33:40.578Z,3.37
2022-12-23T04:36:07.752Z,3.23
2022-12-23T04:38:34.916Z,3.30
2022-12-23T04:41:02.039Z,3.43
2022-12-23T04:43:29.168Z,3.33
2022-12-23T04:45:56.306Z,3.50
2022-12-23T04:48:23.479Z,3.53
2022-12-23T04:50:50.578Z,3.47
2022-12-23T04:53:17.697Z,3.53
2022-12-23T04:55:44.789Z,3.00
2022-12-23T04:58:11.885Z,3.47
2022-12-23T05:00:39.989Z,3.10
2022-12-23T05:03:07.422Z,3.30
2022-12-23T05:05:34.653Z,2.87
2022-12-23T05:08:06.003Z,2.90
2022-12-23T05:10:33.367Z,2.63
2022-12-23T05:13:00.495Z,3.17
2022-12-23T05:15:27.617Z,3.87
2022-12-23T05:17:54.775Z,4.40
2022-12-23T05:20:21.899Z,4.77
2022-12-23T05:22:49.012Z,4.73
2022-12-23T05:25:16.208Z,4.93
2022-12-23T05:27:43.361Z,5.30
2022-12-23T05:30:10.791Z,4.87
2022-12-23T05:32:39.256Z,4.43
2022-12-23T05:35:06.913Z,4.10
2022-12-23T05:37:34.048Z,4.53
2022-12-23T05:40:01.112Z,5.13
2022-12-23T05:42:28.569Z,4.90
2022-12-23T05:44:55.696Z,5.77
2022-12-23T05:47:22.799Z,6.03
2022-12-23T05:49:50.636Z,5.00
2022-12-23T05:52:17.773Z,4.37
2022-12-23T05:54:44.908Z,3.90
2022-12-23T05:57:12.058Z,4.33
2022-12-23T05:59:39.175Z,3.53
2022-12-23T06:02:06.464Z,3.60
2022-12-23T06:04:33.700Z,3.47
2022-12-23T06:07:00.795Z,3.40
2022-12-23T06:09:27.949Z,3.00
2022-12-23T06:11:55.050Z,3.10
2022-12-23T06:14:28.416Z,3.13
2022-12-23T06:16:56.141Z,3.27
2022-12-23T06:19:23.308Z,3.10
2022-12-23T06:21:50.423Z,2.90
2022-12-23T06:24:17.489Z,3.00
2022-12-23T06:26:44.608Z,3.10
2022-12-23T06:29:11.771Z,2.67
2022-12-23T06:31:38.963Z,2.17
2022-12-23T06:34:06.178Z,2.10
2022-12-23T06:36:33.309Z,2.30
2022-12-23T06:39:00.391Z,1.80
2022-12-23T06:41:27.553Z,1.50
2022-12-23T06:43:54.831Z,1.50
2022-12-23T06:46:22.139Z,1.20
2022-12-23T06:48:49.258Z,1.40
2022-12-23T06:51:16.354Z,1.07
2022-12-23T06:53:43.463Z,1.10
2022-12-23T06:56:10.579Z,1.10
2022-12-23T06:58:37.672Z,1.50
2022-12-23T07:01:04.949Z,0.93
2022-12-23T07:03:32.192Z,1.00
2022-12-23T07:05:59.398Z,1.07
2022-12-23T07:08:26.512Z,1.03
2022-12-23T07:11:00.165Z,1.00
2022-12-23T07:13:27.752Z,1.10
2022-12-23T07:15:54.871Z,0.90
2022-12-23T07:18:25.574Z,1.30
2022-12-23T07:20:53.291Z,1.10
2022-12-23T07:23:20.697Z,0.90
2022-12-23T07:29:15.949Z,1.10
2022-12-23T07:31:43.103Z,0.90
2022-12-23T07:34:10.456Z,0.90
2022-12-23T07:36:37.587Z,0.87
2022-12-23T07:39:04.784Z,1.00
2022-12-23T07:41:32.016Z,0.90
2022-12-23T07:43:59.177Z,1.07
2022-12-23T07:46:26.416Z,1.00
2022-12-23T07:48:53.567Z,1.03
2022-12-23T07:51:20.711Z,1.10
2022-12-23T07:53:51.353Z,1.40
2022-12-23T07:56:18.894Z,1.40
2022-12-23T07:58:52.891Z,1.10
2022-12-23T08:01:20.582Z,1.10
2022-12-23T08:03:47.796Z,1.10
2022-12-23T08:06:15.810Z,1.03
2022-12-23T08:08:43.547Z,1.40
2022-12-23T08:11:11.353Z,1.00
2022-12-23T08:13:40.162Z,1.30
2022-12-23T08:16:08.376Z,1.07
2022-12-23T08:18:36.702Z,1.10
2022-12-23T08:21:14.821Z,1.23
2022-12-23T08:23:43.465Z,1.10
2022-12-23T08:26:14.732Z,1.47
2022-12-23T08:28:42.575Z,1.40
2022-12-23T08:31:09.744Z,1.20
2022-12-23T08:33:38.286Z,1.40
2022-12-23T08:36:06.882Z,1.20
2022-12-23T08:38:34.571Z,3.50
2022-12-23T08:41:01.715Z,2.60
2022-12-23T08:43:44.152Z,3.30
2022-12-23T08:46:11.436Z,3.20
2022-12-23T08:48:42.503Z,1.40
2022-12-23T08:51:14.262Z,2.00
2022-12-23T08:53:41.698Z,1.53
2022-12-23T08:56:13.505Z,1.47
2022-12-23T08:58:41.956Z,3.23
2022-12-23T09:01:09.951Z,3.90
2022-12-23T09:03:37.655Z,3.60
2022-12-23T09:06:09.606Z,13.17
2022-12-23T09:08:37.124Z,16.10
2022-12-23T09:11:04.528Z,15.63
2022-12-23T09:13:35.561Z,18.33
2022-12-23T09:16:02.954Z,9.73
2022-12-23T09:18:30.163Z,3.60
2022-12-23T09:21:16.522Z,3.17
2022-12-23T09:23:43.671Z,3.20
2022-12-23T09:26:11.717Z,5.67
2022-12-23T09:28:40.039Z,7.23
2022-12-23T09:31:11.421Z,4.70
2022-12-23T09:33:38.991Z,4.70
2022-12-23T09:36:06.972Z,5.93
2022-12-23T09:38:34.321Z,6.07
2022-12-23T09:41:06.816Z,6.77
2022-12-23T09:43:33.893Z,3.90
2022-12-23T09:46:07.406Z,3.03
2022-12-23T09:48:43.530Z,3.27
2022-12-23T09:51:11.363Z,2.70
2022-12-23T09:53:55.558Z,2.20
2022-12-23T09:56:28.388Z,2.17
2022-12-23T09:58:55.533Z,2.33
2022-12-23T10:01:29.520Z,2.40
2022-12-23T10:03:56.713Z,2.17
2022-12-23T10:06:26.631Z,2.50
2022-12-23T10:08:55.389Z,3.53
2022-12-23T10:11:38.042Z,4.60
2022-12-23T10:14:20.405Z,5.53
2022-12-23T10:16:52.561Z,6.70
2022-12-23T10:19:29.115Z,6.50
2022-12-23T10:22:00.832Z,6.83
2022-12-23T10:24:30.990Z,7.37
2022-12-23T10:27:06.855Z,8.00
2022-12-23T10:29:34.822Z,7.83
2022-12-23T10:32:20.646Z,8.97
2022-12-23T10:34:58.119Z,5.83
2022-12-23T10:37:27.960Z,3.50
2022-12-23T10:39:57.916Z,3.10
2022-12-23T10:42:31.581Z,2.70
2022-12-23T10:44:58.767Z,2.70
2022-12-23T10:47:46.141Z,2.80
2022-12-23T10:50:19.327Z,2.40
2022-12-23T10:52:48.667Z,2.50
2022-12-23T10:55:20.838Z,2.47
2022-12-23T10:57:48.025Z,2.50
2022-12-23T11:00:19.328Z,2.00
2022-12-23T11:03:13.136Z,1.97
2022-12-23T11:05:41.149Z,2.10
2022-12-23T11:08:09.726Z,1.80
2022-12-23T11:10:36.984Z,2.00
2022-12-23T11:13:04.158Z,1.77
2022-12-23T11:15:31.290Z,1.80
2022-12-23T11:18:01.531Z,2.00
2022-12-23T11:20:28.959Z,2.07
2022-12-23T11:22:56.373Z,2.03
2022-12-23T11:25:27.500Z,2.17
2022-12-23T11:28:03.539Z,1.97
2022-12-23T11:30:31.940Z,1.90
2022-12-23T11:32:59.098Z,2.13
2022-12-23T11:35:31.485Z,2.00
2022-12-23T11:38:00.120Z,5.87
2022-12-23T11:40:29.140Z,7.40
2022-12-23T11:43:01.395Z,7.73
2022-12-23T11:45:30.192Z,8.47
2022-12-23T11:47:57.377Z,7.10
2022-12-23T11:50:29.094Z,7.97
2022-12-23T11:53:01.456Z,7.27
2022-12-23T11:55:29.849Z,6.03
2022-12-23T11:57:57.160Z,5.07
2022-12-23T12:00:27.576Z,5.13
2022-12-23T12:02:56.633Z,5.00
2022-12-23T12:05:28.982Z,4.73
2022-12-23T12:07:59.206Z,3.53
2022-12-23T12:10:27.841Z,3.20
2022-12-23T12:13:03.271Z,3.23
2022-12-23T12:15:44.342Z,3.30
2022-12-23T12:18:17.812Z,2.97
2022-12-23T12:20:46.418Z,2.70
2022-12-23T12:23:15.847Z,2.80
2022-12-23T12:25:44.381Z,3.50
2022-12-23T12:28:14.302Z,8.80
2022-12-23T12:30:46.266Z,10.17
2022-12-23T12:33:19.433Z,8.07
2022-12-23T12:36:00.278Z,6.63
2022-12-23T12:38:36.801Z,4.70
2022-12-23T12:41:28.146Z,3.60
2022-12-23T12:44:04.419Z,3.40
2022-12-23T12:46:34.446Z,3.13
2022-12-23T12:49:10.846Z,2.90
2022-12-23T12:51:40.976Z,3.67
2022-12-23T12:54:20.901Z,4.40
2022-12-23T12:56:52.257Z,6.50
2022-12-23T12:59:21.183Z,12.77
2022-12-23T13:01:57.831Z,5.57
2022-12-23T13:04:40.234Z,7.57
2022-12-23T13:07:25.945Z,4.90
2022-12-23T13:10:11.879Z,5.93
2022-12-23T13:12:48.068Z,4.53
2022-12-23T13:15:15.159Z,15.37
2022-12-23T13:17:48.976Z,7.23
2022-12-23T13:20:34.848Z,4.37
2022-12-23T13:23:41.218Z,4.63
2022-12-23T13:25:57.956Z,5.00
2022-12-23T13:28:39.650Z,6.30
2022-12-23T13:31:09.875Z,5.63
2022-12-23T13:33:45.275Z,5.00
2022-12-23T13:36:27.405Z,5.00
2022-12-23T13:39:13.046Z,5.20
2022-12-23T13:41:42.435Z,5.90
2022-12-23T13:44:10.761Z,6.60
2022-12-23T13:46:37.925Z,7.53
2022-12-23T13:49:23.519Z,8.30
2022-12-23T13:51:55.614Z,7.37
2022-12-23T13:54:28.159Z,6.73
2022-12-23T13:57:08.033Z,7.40
2022-12-23T13:59:39.684Z,7.13
2022-12-23T14:02:26.830Z,9.63
2022-12-23T14:04:56.779Z,12.80
2022-12-23T14:07:24.342Z,30.47
2022-12-23T14:09:55.141Z,13.00
2022-12-23T14:12:33.711Z,12.23
2022-12-23T14:15:13.559Z,8.10
2022-12-23T14:17:52.558Z,19.20
2022-12-23T14:20:43.078Z,19.33
2022-12-23T14:23:25.617Z,23.67
2022-12-23T14:25:57.794Z,18.07
2022-12-23T14:28:33.448Z,15.60
2022-12-23T14:31:00.673Z,8.43
2022-12-23T14:33:29.160Z,8.90
2022-12-23T14:35:56.324Z,16.80
2022-12-23T14:38:24.937Z,19.33
2022-12-23T14:41:12.039Z,12.30
2022-12-23T14:43:45.309Z,10.77
2022-12-23T14:46:31.055Z,13.83
2022-12-23T14:49:29.694Z,12.53
2022-12-23T14:51:51.081Z,16.23
2022-12-23T14:54:37.359Z,13.93
2022-12-23T14:57:08.630Z,14.80
2022-12-23T14:59:45.891Z,12.30
2022-12-23T15:02:34.548Z,12.53
2022-12-23T15:05:02.167Z,11.93
2022-12-23T15:07:37.137Z,14.17
2022-12-23T15:10:04.253Z,15.17
2022-12-23T15:12:35.776Z,12.37
2022-12-23T15:15:05.991Z,15.43
2022-12-23T15:17:34.585Z,13.97
2022-12-23T15:20:11.188Z,17.77
2022-12-23T15:22:38.865Z,15.17
2022-12-23T15:25:06.968Z,15.53
2022-12-23T15:27:36.151Z,16.27
2022-12-23T15:30:03.420Z,16.80
2022-12-23T15:32:30.697Z,13.20
2022-12-23T15:35:01.766Z,12.90
2022-12-23T15:37:29.666Z,11.90
2022-12-23T15:40:04.860Z,14.43
2022-12-23T15:42:38.549Z,16.83
2022-12-23T15:45:26.996Z,16.17
2022-12-23T15:47:54.173Z,17.20
2022-12-23T15:50:21.415Z,17.20
2022-12-23T15:52:50.119Z,18.83
2022-12-23T15:55:30.343Z,15.30
2022-12-23T15:57:57.752Z,19.63
2022-12-23T16:00:27.038Z,10.37
2022-12-23T16:03:01.051Z,11.17
2022-12-23T16:05:34.528Z,12.30
2022-12-23T16:08:28.582Z,5.87
2022-12-23T16:10:59.263Z,6.30
2022-12-23T16:13:26.449Z,4.17
2022-12-23T16:15:54.994Z,2.17
2022-12-23T16:18:22.244Z,2.30
2022-12-23T16:20:53.755Z,2.40
2022-12-23T16:23:21.511Z,2.20
2022-12-23T16:25:50.840Z,2.00
2022-12-23T16:28:28.332Z,1.57
2022-12-23T16:30:56.768Z,1.90
2022-12-23T16:33:36.955Z,1.80
2022-12-23T16:36:33.487Z,1.77
2022-12-23T16:39:09.440Z,1.70
2022-12-23T16:41:36.561Z,1.70
2022-12-23T16:44:04.781Z,1.60
2022-12-23T16:46:38.109Z,1.53
2022-12-23T16:52:27.904Z,1.37
2022-12-23T16:54:55.020Z,1.40
2022-12-23T16:57:22.137Z,1.30
2022-12-23T16:59:50.270Z,1.30
2022-12-23T17:02:20.063Z,1.33
2022-12-23T17:04:47.210Z,2.13
2022-12-23T17:07:14.405Z,8.43
2022-12-23T17:09:41.493Z,9.27
2022-12-23T17:12:09.705Z,5.83
2022-12-23T17:14:36.787Z,4.60
2022-12-23T17:17:12.934Z,1.93
2022-12-23T17:19:40.054Z,2.37
2022-12-23T17:22:07.189Z,1.30
2022-12-23T17:24:34.346Z,1.10
2022-12-23T17:27:01.530Z,0.90
2022-12-23T17:29:28.740Z,1.07
2022-12-23T17:31:55.915Z,1.50
2022-12-23T17:34:24.556Z,3.00
2022-12-23T17:36:51.825Z,2.07
2022-12-23T17:39:20.455Z,2.30
2022-12-23T17:41:47.954Z,2.87
2022-12-23T17:44:16.685Z,3.70
2022-12-23T17:46:44.058Z,2.33
2022-12-23T17:49:11.934Z,1.73
2022-12-23T17:51:39.901Z,2.20
2022-12-23T17:54:07.033Z,1.50
2022-12-23T17:56:34.252Z,1.70
2022-12-23T17:59:01.378Z,1.10
2022-12-23T18:01:29.995Z,0.73
2022-12-23T18:03:58.026Z,1.17
2022-12-23T18:06:25.903Z,0.80
2022-12-23T18:08:53.192Z,0.80
2022-12-23T18:11:33.195Z,1.00
2022-12-23T18:14:00.602Z,1.27
2022-12-23T18:16:27.774Z,1.17
2022-12-23T18:18:54.907Z,5.63
2022-12-23T18:21:24.332Z,1.60
2022-12-23T18:23:52.614Z,1.40
2022-12-23T18:26:19.714Z,1.70
2022-12-23T18:28:46.890Z,1.20
2022-12-23T18:31:19.108Z,1.03
2022-12-23T18:33:46.883Z,1.23
2022-12-23T18:36:24.589Z,1.17
2022-12-23T18:38:52.640Z,1.10
2022-12-23T18:41:20.177Z,0.90
2022-12-23T18:43:47.373Z,0.90
2022-12-23T18:46:14.564Z,0.90
2022-12-23T18:48:41.777Z,1.00
2022-12-23T18:51:13.564Z,0.70
2022-12-23T18:53:41.639Z,0.50
2022-12-23T18:56:12.687Z,0.70
2022-12-23T18:58:39.817Z,0.50
2022-12-23T19:01:07.066Z,0.90
2022-12-23T19:03:34.236Z,0.73
2022-12-23T19:06:06.649Z,0.80
2022-12-23T19:08:34.987Z,0.80
2022-12-23T19:11:02.472Z,0.83
2022-12-23T19:13:29.650Z,0.90
2022-12-23T19:15:56.827Z,1.07
2022-12-23T19:18:24.026Z,1.23
2022-12-23T19:20:51.526Z,1.20
2022-12-23T19:23:18.679Z,1.30
2022-12-23T19:25:54.487Z,1.40
2022-12-23T19:28:22.828Z,1.40
2022-12-23T19:30:50.119Z,1.43
2022-12-23T19:33:17.691Z,1.40
2022-12-23T19:35:45.042Z,1.60
2022-12-23T19:38:12.465Z,1.40
2022-12-23T19:40:40.009Z,1.80
2022-12-23T19:43:07.191Z,2.00
2022-12-23T19:45:34.482Z,1.80
2022-12-23T19:48:01.616Z,1.80
2022-12-23T19:50:28.748Z,1.80
2022-12-23T19:52:56.581Z,1.90
2022-12-23T19:55:23.961Z,2.20
2022-12-23T19:57:52.225Z,1.70
2022-12-23T20:00:19.494Z,1.47
2022-12-23T20:02:46.868Z,1.50
2022-12-23T20:05:14.078Z,1.60
2022-12-23T20:07:41.236Z,1.70
2022-12-23T20:10:08.652Z,1.37
2022-12-23T20:12:35.786Z,1.70
2022-12-23T20:15:02.871Z,1.50
2022-12-23T20:17:30.026Z,1.20
2022-12-23T20:19:57.364Z,1.40
2022-12-23T20:22:24.525Z,1.37
2022-12-23T20:24:51.649Z,1.53
2022-12-23T20:27:24.190Z,1.50
2022-12-23T20:29:53.249Z,1.27
2022-12-23T20:32:20.346Z,1.70
2022-12-23T20:34:49.028Z,1.70
2022-12-23T20:37:16.228Z,1.60
2022-12-23T20:39:43.334Z,1.17
2022-12-23T20:42:10.491Z,1.70
2022-12-23T20:44:37.959Z,1.77
2022-12-23T20:47:06.342Z,1.70
2022-12-23T20:49:33.682Z,1.80
2022-12-23T20:52:00.892Z,2.10
2022-12-23T20:54:33.120Z,2.17
2022-12-23T20:57:01.633Z,2.00
2022-12-23T20:59:28.849Z,1.37
2022-12-23T21:01:56.484Z,1.77
2022-12-23T21:04:23.692Z,1.93
2022-12-23T21:06:50.900Z,2.10
2022-12-23T21:09:18.360Z,2.43
2022-12-23T21:11:46.511Z,2.03
2022-12-23T21:14:15.391Z,1.70
2022-12-23T21:16:43.140Z,1.57
2022-12-23T21:19:14.785Z,1.37
2022-12-23T21:21:41.896Z,1.10
2022-12-23T21:24:10.198Z,1.40
2022-12-23T21:26:37.343Z,1.13
2022-12-23T21:29:05.651Z,1.40
2022-12-23T21:31:33.739Z,1.50
2022-12-23T21:34:02.080Z,1.40
2022-12-23T21:36:31.184Z,1.67
2022-12-23T21:38:58.515Z,1.70
2022-12-23T21:41:29.851Z,2.03
2022-12-23T21:43:57.415Z,1.53
2022-12-23T21:46:24.851Z,2.30
2022-12-23T21:48:52.332Z,1.97
2022-12-23T21:51:24.283Z,1.70
2022-12-23T21:53:52.412Z,2.17
2022-12-23T21:56:21.036Z,2.30
2022-12-23T21:58:48.143Z,2.20
2022-12-23T22:01:17.132Z,1.97
2022-12-23T22:03:45.025Z,2.17
2022-12-23T22:06:15.283Z,2.03
2022-12-23T22:08:42.802Z,2.33
2022-12-23T22:11:14.213Z,2.67
2022-12-23T22:13:42.133Z,2.60
2022-12-23T22:16:13.433Z,2.00
2022-12-23T22:18:40.682Z,2.10
2022-12-23T22:21:09.096Z,1.97
2022-12-23T22:23:36.797Z,1.80
2022-12-23T22:26:04.119Z,2.10
2022-12-23T22:28:32.273Z,2.43
2022-12-23T22:31:07.214Z,2.00
2022-12-23T22:33:34.546Z,2.13
2022-12-23T22:36:01.873Z,2.00
2022-12-23T22:38:29.017Z,2.00
2022-12-23T22:40:56.129Z,2.30
2022-12-23T22:43:23.262Z,1.90
2022-12-23T22:45:57.509Z,2.70
2022-12-23T22:48:25.409Z,3.03
2022-12-23T22:50:53.921Z,2.40
2022-12-23T22:53:24.903Z,2.17
2022-12-23T22:56:00.552Z,1.90
2022-12-23T22:58:28.045Z,2.00
2022-12-23T23:00:55.277Z,2.23
2022-12-23T23:03:22.591Z,2.07
2022-12-23T23:05:58.425Z,2.30
2022-12-23T23:08:25.720Z,2.10
2022-12-23T23:10:52.797Z,2.00
2022-12-23T23:13:19.902Z,2.40
2022-12-23T23:15:49.929Z,1.93
2022-12-23T23:18:17.126Z,2.03
2022-12-23T23:20:44.256Z,2.20
2022-12-23T23:23:11.374Z,2.43
2022-12-23T23:25:38.532Z,2.20
2022-12-23T23:28:05.787Z,2.60
2022-12-23T23:30:32.959Z,2.23
2022-12-23T23:33:00.198Z,2.37
2022-12-23T23:35:27.468Z,2.00
2022-12-23T23:37:54.599Z,2.30
2022-12-23T23:40:21.772Z,2.10
2022-12-23T23:42:48.903Z,2.33
2022-12-23T23:45:16.129Z,2.23
2022-12-23T23:47:43.256Z,2.50
2022-12-23T23:50:10.536Z,2.17
2022-12-23T23:52:37.620Z,2.30
2022-12-23T23:55:04.846Z,2.27
2022-12-23T23:57:32.293Z,2.57
2022-12-23T23:59:59.418Z,2.60
